sensor_id;sensor_type;location;lat;lon;timestamp;P1;durP1;ratioP1;P2;durP2;ratioP2
59972;SDS011;55298;-36.624;-64.282;2023-04-15T00:02:14;8.60;;;4.40;;
59972;SDS011;55298;-36.624;-64.282;2023-04-15T00:04:44;8.48;;;4.88;;
59972;SDS011;55298;-36.624;-64.282;2023-04-15T00:07:13;8.90;;;3.95;;
59972;SDS011;55298;-36.624;-64.282;2023-04-15T00:09:42;7.65;;;4.40;;
59972;SDS011;55298;-36.624;-64.282;2023-04-15T00:12:10;6.85;;;3.55;;
59972;SDS011;55298;-36.624;-64.282;2023-04-15T00:14:38;4.32;;;3.20;;
59972;SDS011;55298;-36.624;-64.282;2023-04-15T00:17:06;7.68;;;3.90;;
59972;SDS011;55298;-36.624;-64.282;2023-04-15T00:19:34;11.65;;;5.60;;
59972;SDS011;55298;-36.624;-64.282;2023-04-15T00:22:02;5.60;;;4.30;;
59972;SDS011;55298;-36.624;-64.282;2023-04-15T00:24:32;15.70;;;8.60;;
59972;SDS011;55298;-36.624;-64.282;2023-04-15T00:27:03;18.83;;;12.38;;
59972;SDS011;55298;-36.624;-64.282;2023-04-15T00:29:31;14.05;;;7.53;;
59972;SDS011;55298;-36.624;-64.282;2023-04-15T00:31:59;7.28;;;5.70;;
59972;SDS011;55298;-36.624;-64.282;2023-04-15T00:34:30;10.50;;;7.13;;
59972;SDS011;55298;-36.624;-64.282;2023-04-15T00:37:02;14.30;;;7.80;;
59972;SDS011;55298;-36.624;-64.282;2023-04-15T00:39:30;10.15;;;6.20;;
59972;SDS011;55298;-36.624;-64.282;2023-04-15T00:41:58;10.20;;;5.40;;
59972;SDS011;55298;-36.624;-64.282;2023-04-15T00:44:27;5.75;;;4.28;;
59972;SDS011;55298;-36.624;-64.282;2023-04-15T00:46:55;6.82;;;5.20;;
59972;SDS011;55298;-36.624;-64.282;2023-04-15T00:49:24;7.63;;;4.32;;
59972;SDS011;55298;-36.624;-64.282;2023-04-15T00:51:53;6.72;;;4.32;;
59972;SDS011;55298;-36.624;-64.282;2023-04-15T00:54:22;5.78;;;3.72;;
59972;SDS011;55298;-36.624;-64.282;2023-04-15T00:56:52;5.85;;;4.38;;
59972;SDS011;55298;-36.624;-64.282;2023-04-15T00:59:19;11.77;;;6.95;;
59972;SDS011;55298;-36.624;-64.282;2023-04-15T01:01:48;14.38;;;6.63;;
59972;SDS011;55298;-36.624;-64.282;2023-04-15T01:04:16;10.52;;;6.85;;
59972;SDS011;55298;-36.624;-64.282;2023-04-15T01:06:44;9.68;;;7.07;;
59972;SDS011;55298;-36.624;-64.282;2023-04-15T01:09:12;10.05;;;5.88;;
59972;SDS011;55298;-36.624;-64.282;2023-04-15T01:11:42;7.10;;;5.28;;
59972;SDS011;55298;-36.624;-64.282;2023-04-15T01:14:13;8.07;;;4.68;;
59972;SDS011;55298;-36.624;-64.282;2023-04-15T01:16:44;10.18;;;5.13;;
59972;SDS011;55298;-36.624;-64.282;2023-04-15T01:19:14;6.30;;;4.80;;
59972;SDS011;55298;-36.624;-64.282;2023-04-15T01:24:13;5.85;;;3.88;;
59972;SDS011;55298;-36.624;-64.282;2023-04-15T01:26:44;9.75;;;4.38;;
59972;SDS011;55298;-36.624;-64.282;2023-04-15T01:29:14;6.35;;;3.78;;
59972;SDS011;55298;-36.624;-64.282;2023-04-15T01:31:52;8.40;;;4.93;;
59972;SDS011;55298;-36.624;-64.282;2023-04-15T01:34:21;9.93;;;4.65;;
59972;SDS011;55298;-36.624;-64.282;2023-04-15T01:36:50;14.82;;;6.45;;
59972;SDS011;55298;-36.624;-64.282;2023-04-15T01:39:18;10.68;;;6.55;;
59972;SDS011;55298;-36.624;-64.282;2023-04-15T01:41:49;9.75;;;5.20;;
59972;SDS011;55298;-36.624;-64.282;2023-04-15T01:44:26;9.75;;;5.75;;
59972;SDS011;55298;-36.624;-64.282;2023-04-15T01:46:53;12.75;;;6.18;;
59972;SDS011;55298;-36.624;-64.282;2023-04-15T01:49:21;11.52;;;6.18;;
59972;SDS011;55298;-36.624;-64.282;2023-04-15T01:51:49;10.32;;;5.45;;
59972;SDS011;55298;-36.624;-64.282;2023-04-15T01:54:19;19.85;;;12.35;;
59972;SDS011;55298;-36.624;-64.282;2023-04-15T01:56:52;9.45;;;6.35;;
59972;SDS011;55298;-36.624;-64.282;2023-04-15T01:59:22;12.05;;;6.88;;
59972;SDS011;55298;-36.624;-64.282;2023-04-15T02:01:50;19.95;;;8.45;;
59972;SDS011;55298;-36.624;-64.282;2023-04-15T02:04:22;13.15;;;6.50;;
59972;SDS011;55298;-36.624;-64.282;2023-04-15T02:06:50;11.00;;;6.03;;
59972;SDS011;55298;-36.624;-64.282;2023-04-15T02:09:17;13.35;;;6.43;;
59972;SDS011;55298;-36.624;-64.282;2023-04-15T02:11:45;13.55;;;6.30;;
59972;SDS011;55298;-36.624;-64.282;2023-04-15T02:14:13;9.68;;;5.25;;
59972;SDS011;55298;-36.624;-64.282;2023-04-15T02:16:41;9.85;;;5.20;;
59972;SDS011;55298;-36.624;-64.282;2023-04-15T02:19:09;8.20;;;3.92;;
59972;SDS011;55298;-36.624;-64.282;2023-04-15T02:21:38;6.70;;;3.67;;
59972;SDS011;55298;-36.624;-64.282;2023-04-15T02:24:13;5.57;;;3.65;;
59972;SDS011;55298;-36.624;-64.282;2023-04-15T02:26:48;9.90;;;3.78;;
59972;SDS011;55298;-36.624;-64.282;2023-04-15T02:29:19;3.92;;;3.28;;
59972;SDS011;55298;-36.624;-64.282;2023-04-15T02:31:49;5.72;;;3.30;;
59972;SDS011;55298;-36.624;-64.282;2023-04-15T02:34:16;5.07;;;3.03;;
59972;SDS011;55298;-36.624;-64.282;2023-04-15T02:36:44;7.03;;;2.90;;
59972;SDS011;55298;-36.624;-64.282;2023-04-15T02:39:14;5.95;;;2.97;;
59972;SDS011;55298;-36.624;-64.282;2023-04-15T02:41:43;4.10;;;3.00;;
59972;SDS011;55298;-36.624;-64.282;2023-04-15T02:44:16;4.53;;;2.80;;
59972;SDS011;55298;-36.624;-64.282;2023-04-15T02:46:45;4.53;;;3.05;;
59972;SDS011;55298;-36.624;-64.282;2023-04-15T02:49:15;3.28;;;2.20;;
59972;SDS011;55298;-36.624;-64.282;2023-04-15T02:51:43;3.25;;;2.33;;
59972;SDS011;55298;-36.624;-64.282;2023-04-15T02:54:16;5.53;;;2.20;;
59972;SDS011;55298;-36.624;-64.282;2023-04-15T02:56:44;5.47;;;2.80;;
59972;SDS011;55298;-36.624;-64.282;2023-04-15T02:59:12;6.32;;;3.00;;
59972;SDS011;55298;-36.624;-64.282;2023-04-15T03:01:41;2.92;;;2.40;;
59972;SDS011;55298;-36.624;-64.282;2023-04-15T03:04:09;3.08;;;2.50;;
59972;SDS011;55298;-36.624;-64.282;2023-04-15T03:06:37;3.65;;;2.40;;
59972;SDS011;55298;-36.624;-64.282;2023-04-15T03:09:06;7.05;;;2.67;;
59972;SDS011;55298;-36.624;-64.282;2023-04-15T03:11:34;6.05;;;2.65;;
59972;SDS011;55298;-36.624;-64.282;2023-04-15T03:14:05;7.28;;;3.80;;
59972;SDS011;55298;-36.624;-64.282;2023-04-15T03:16:33;2.38;;;2.17;;
59972;SDS011;55298;-36.624;-64.282;2023-04-15T03:19:01;10.60;;;3.00;;
59972;SDS011;55298;-36.624;-64.282;2023-04-15T03:21:28;4.40;;;2.72;;
59972;SDS011;55298;-36.624;-64.282;2023-04-15T03:23:57;9.98;;;2.90;;
59972;SDS011;55298;-36.624;-64.282;2023-04-15T03:26:26;3.97;;;2.40;;
59972;SDS011;55298;-36.624;-64.282;2023-04-15T03:28:56;3.58;;;2.20;;
59972;SDS011;55298;-36.624;-64.282;2023-04-15T03:31:24;7.10;;;2.97;;
59972;SDS011;55298;-36.624;-64.282;2023-04-15T03:33:52;3.97;;;2.10;;
59972;SDS011;55298;-36.624;-64.282;2023-04-15T03:36:19;3.17;;;2.10;;
59972;SDS011;55298;-36.624;-64.282;2023-04-15T03:38:47;3.78;;;2.30;;
59972;SDS011;55298;-36.624;-64.282;2023-04-15T03:41:15;4.90;;;2.33;;
59972;SDS011;55298;-36.624;-64.282;2023-04-15T03:43:43;4.70;;;2.40;;
59972;SDS011;55298;-36.624;-64.282;2023-04-15T03:46:11;5.28;;;2.53;;
59972;SDS011;55298;-36.624;-64.282;2023-04-15T03:48:38;3.58;;;2.35;;
59972;SDS011;55298;-36.624;-64.282;2023-04-15T03:51:06;5.32;;;2.70;;
59972;SDS011;55298;-36.624;-64.282;2023-04-15T03:53:34;4.85;;;2.28;;
59972;SDS011;55298;-36.624;-64.282;2023-04-15T03:56:02;6.05;;;2.47;;
59972;SDS011;55298;-36.624;-64.282;2023-04-15T03:58:29;4.15;;;2.03;;
59972;SDS011;55298;-36.624;-64.282;2023-04-15T04:00:57;4.25;;;2.55;;
59972;SDS011;55298;-36.624;-64.282;2023-04-15T04:03:27;3.38;;;2.22;;
59972;SDS011;55298;-36.624;-64.282;2023-04-15T04:05:58;2.60;;;2.40;;
59972;SDS011;55298;-36.624;-64.282;2023-04-15T04:08:26;4.95;;;2.60;;
59972;SDS011;55298;-36.624;-64.282;2023-04-15T04:10:54;4.68;;;2.55;;
59972;SDS011;55298;-36.624;-64.282;2023-04-15T04:13:21;2.40;;;2.10;;
59972;SDS011;55298;-36.624;-64.282;2023-04-15T04:15:49;6.10;;;2.92;;
59972;SDS011;55298;-36.624;-64.282;2023-04-15T04:18:17;5.88;;;2.60;;
59972;SDS011;55298;-36.624;-64.282;2023-04-15T04:20:45;5.10;;;2.63;;
59972;SDS011;55298;-36.624;-64.282;2023-04-15T04:23:13;7.35;;;2.67;;
59972;SDS011;55298;-36.624;-64.282;2023-04-15T04:25:41;6.68;;;2.40;;
59972;SDS011;55298;-36.624;-64.282;2023-04-15T04:28:09;8.07;;;2.95;;
59972;SDS011;55298;-36.624;-64.282;2023-04-15T04:30:39;6.22;;;2.70;;
59972;SDS011;55298;-36.624;-64.282;2023-04-15T04:33:08;5.05;;;2.97;;
59972;SDS011;55298;-36.624;-64.282;2023-04-15T04:35:36;20.88;;;3.67;;
59972;SDS011;55298;-36.624;-64.282;2023-04-15T04:38:04;2.55;;;2.25;;
59972;SDS011;55298;-36.624;-64.282;2023-04-15T04:40:36;4.10;;;2.20;;
59972;SDS011;55298;-36.624;-64.282;2023-04-15T04:43:03;4.55;;;2.30;;
59972;SDS011;55298;-36.624;-64.282;2023-04-15T04:45:31;6.18;;;2.50;;
59972;SDS011;55298;-36.624;-64.282;2023-04-15T04:47:59;3.33;;;2.33;;
59972;SDS011;55298;-36.624;-64.282;2023-04-15T04:50:27;13.55;;;4.10;;
59972;SDS011;55298;-36.624;-64.282;2023-04-15T04:52:54;6.53;;;2.67;;
59972;SDS011;55298;-36.624;-64.282;2023-04-15T04:55:22;6.78;;;2.63;;
59972;SDS011;55298;-36.624;-64.282;2023-04-15T04:57:50;4.32;;;2.47;;
59972;SDS011;55298;-36.624;-64.282;2023-04-15T05:00:18;5.72;;;2.53;;
59972;SDS011;55298;-36.624;-64.282;2023-04-15T05:02:46;5.63;;;2.80;;
59972;SDS011;55298;-36.624;-64.282;2023-04-15T05:05:13;6.53;;;2.80;;
59972;SDS011;55298;-36.624;-64.282;2023-04-15T05:07:42;3.80;;;2.30;;
59972;SDS011;55298;-36.624;-64.282;2023-04-15T05:10:10;3.88;;;2.83;;
59972;SDS011;55298;-36.624;-64.282;2023-04-15T05:12:39;3.63;;;2.10;;
59972;SDS011;55298;-36.624;-64.282;2023-04-15T05:15:07;5.57;;;2.40;;
59972;SDS011;55298;-36.624;-64.282;2023-04-15T05:17:36;2.75;;;2.13;;
59972;SDS011;55298;-36.624;-64.282;2023-04-15T05:20:07;2.90;;;2.47;;
59972;SDS011;55298;-36.624;-64.282;2023-04-15T05:22:35;5.57;;;2.22;;
59972;SDS011;55298;-36.624;-64.282;2023-04-15T05:25:03;4.43;;;2.35;;
59972;SDS011;55298;-36.624;-64.282;2023-04-15T05:27:31;4.00;;;2.20;;
59972;SDS011;55298;-36.624;-64.282;2023-04-15T05:29:59;2.40;;;2.20;;
59972;SDS011;55298;-36.624;-64.282;2023-04-15T05:32:27;3.67;;;2.20;;
59972;SDS011;55298;-36.624;-64.282;2023-04-15T05:34:55;5.03;;;2.72;;
59972;SDS011;55298;-36.624;-64.282;2023-04-15T05:37:23;4.28;;;2.28;;
59972;SDS011;55298;-36.624;-64.282;2023-04-15T05:39:51;6.35;;;2.30;;
59972;SDS011;55298;-36.624;-64.282;2023-04-15T05:42:19;4.57;;;2.38;;
59972;SDS011;55298;-36.624;-64.282;2023-04-15T05:44:46;3.22;;;2.30;;
59972;SDS011;55298;-36.624;-64.282;2023-04-15T05:47:14;3.13;;;2.65;;
59972;SDS011;55298;-36.624;-64.282;2023-04-15T05:49:42;5.28;;;3.08;;
59972;SDS011;55298;-36.624;-64.282;2023-04-15T05:52:10;4.38;;;2.97;;
59972;SDS011;55298;-36.624;-64.282;2023-04-15T05:54:37;5.15;;;2.90;;
59972;SDS011;55298;-36.624;-64.282;2023-04-15T05:57:05;3.13;;;2.40;;
59972;SDS011;55298;-36.624;-64.282;2023-04-15T05:59:33;3.15;;;2.67;;
59972;SDS011;55298;-36.624;-64.282;2023-04-15T06:02:00;4.88;;;3.42;;
59972;SDS011;55298;-36.624;-64.282;2023-04-15T06:04:28;4.60;;;2.47;;
59972;SDS011;55298;-36.624;-64.282;2023-04-15T06:06:57;3.10;;;2.75;;
59972;SDS011;55298;-36.624;-64.282;2023-04-15T06:09:25;2.83;;;2.30;;
59972;SDS011;55298;-36.624;-64.282;2023-04-15T06:11:53;5.45;;;2.28;;
59972;SDS011;55298;-36.624;-64.282;2023-04-15T06:14:22;3.78;;;2.60;;
59972;SDS011;55298;-36.624;-64.282;2023-04-15T06:16:49;3.13;;;2.30;;
59972;SDS011;55298;-36.624;-64.282;2023-04-15T06:19:17;4.63;;;2.33;;
59972;SDS011;55298;-36.624;-64.282;2023-04-15T06:21:45;3.17;;;2.47;;
59972;SDS011;55298;-36.624;-64.282;2023-04-15T06:24:13;5.95;;;2.33;;
59972;SDS011;55298;-36.624;-64.282;2023-04-15T06:26:41;3.45;;;2.08;;
59972;SDS011;55298;-36.624;-64.282;2023-04-15T06:29:08;3.47;;;2.40;;
59972;SDS011;55298;-36.624;-64.282;2023-04-15T06:31:36;3.63;;;2.50;;
59972;SDS011;55298;-36.624;-64.282;2023-04-15T06:34:05;2.95;;;2.40;;
59972;SDS011;55298;-36.624;-64.282;2023-04-15T06:36:32;5.28;;;2.55;;
59972;SDS011;55298;-36.624;-64.282;2023-04-15T06:39:01;2.33;;;2.00;;
59972;SDS011;55298;-36.624;-64.282;2023-04-15T06:41:29;3.28;;;3.00;;
59972;SDS011;55298;-36.624;-64.282;2023-04-15T06:43:57;6.10;;;2.38;;
59972;SDS011;55298;-36.624;-64.282;2023-04-15T06:46:25;3.63;;;2.40;;
59972;SDS011;55298;-36.624;-64.282;2023-04-15T06:48:53;5.57;;;2.38;;
59972;SDS011;55298;-36.624;-64.282;2023-04-15T06:51:21;4.13;;;2.28;;
59972;SDS011;55298;-36.624;-64.282;2023-04-15T06:53:49;6.72;;;2.70;;
59972;SDS011;55298;-36.624;-64.282;2023-04-15T06:56:17;4.30;;;2.47;;
59972;SDS011;55298;-36.624;-64.282;2023-04-15T06:58:45;4.13;;;2.50;;
59972;SDS011;55298;-36.624;-64.282;2023-04-15T07:01:13;3.13;;;2.20;;
59972;SDS011;55298;-36.624;-64.282;2023-04-15T07:03:40;2.42;;;2.20;;
59972;SDS011;55298;-36.624;-64.282;2023-04-15T07:06:08;3.67;;;2.40;;
59972;SDS011;55298;-36.624;-64.282;2023-04-15T07:08:36;7.18;;;2.97;;
59972;SDS011;55298;-36.624;-64.282;2023-04-15T07:11:04;5.15;;;2.33;;
59972;SDS011;55298;-36.624;-64.282;2023-04-15T07:13:33;3.53;;;2.75;;
59972;SDS011;55298;-36.624;-64.282;2023-04-15T07:16:01;3.92;;;2.45;;
59972;SDS011;55298;-36.624;-64.282;2023-04-15T07:18:29;5.07;;;2.72;;
59972;SDS011;55298;-36.624;-64.282;2023-04-15T07:20:57;4.97;;;2.75;;
59972;SDS011;55298;-36.624;-64.282;2023-04-15T07:23:25;5.22;;;2.60;;
59972;SDS011;55298;-36.624;-64.282;2023-04-15T07:25:53;7.38;;;2.42;;
59972;SDS011;55298;-36.624;-64.282;2023-04-15T07:28:21;4.22;;;2.53;;
59972;SDS011;55298;-36.624;-64.282;2023-04-15T07:30:49;4.45;;;2.30;;
59972;SDS011;55298;-36.624;-64.282;2023-04-15T07:33:17;4.28;;;2.80;;
59972;SDS011;55298;-36.624;-64.282;2023-04-15T07:35:45;5.95;;;2.80;;
59972;SDS011;55298;-36.624;-64.282;2023-04-15T07:38:12;5.32;;;2.63;;
59972;SDS011;55298;-36.624;-64.282;2023-04-15T07:40:40;7.25;;;2.92;;
59972;SDS011;55298;-36.624;-64.282;2023-04-15T07:43:08;3.78;;;2.70;;
59972;SDS011;55298;-36.624;-64.282;2023-04-15T07:45:36;3.15;;;2.85;;
59972;SDS011;55298;-36.624;-64.282;2023-04-15T07:48:05;3.10;;;2.50;;
59972;SDS011;55298;-36.624;-64.282;2023-04-15T07:50:33;4.68;;;2.30;;
59972;SDS011;55298;-36.624;-64.282;2023-04-15T07:53:00;6.65;;;2.50;;
59972;SDS011;55298;-36.624;-64.282;2023-04-15T07:55:28;4.57;;;2.47;;
59972;SDS011;55298;-36.624;-64.282;2023-04-15T07:57:56;5.03;;;2.50;;
59972;SDS011;55298;-36.624;-64.282;2023-04-15T08:00:24;3.05;;;2.42;;
59972;SDS011;55298;-36.624;-64.282;2023-04-15T08:02:55;3.08;;;2.53;;
59972;SDS011;55298;-36.624;-64.282;2023-04-15T08:05:24;4.50;;;2.60;;
59972;SDS011;55298;-36.624;-64.282;2023-04-15T08:07:52;3.67;;;2.20;;
59972;SDS011;55298;-36.624;-64.282;2023-04-15T08:10:21;3.55;;;2.05;;
59972;SDS011;55298;-36.624;-64.282;2023-04-15T08:12:49;7.70;;;2.60;;
59972;SDS011;55298;-36.624;-64.282;2023-04-15T08:15:19;2.85;;;2.25;;
59972;SDS011;55298;-36.624;-64.282;2023-04-15T08:17:48;4.45;;;2.42;;
59972;SDS011;55298;-36.624;-64.282;2023-04-15T08:20:16;3.40;;;2.30;;
59972;SDS011;55298;-36.624;-64.282;2023-04-15T08:22:44;2.88;;;2.28;;
59972;SDS011;55298;-36.624;-64.282;2023-04-15T08:25:16;3.43;;;2.30;;
59972;SDS011;55298;-36.624;-64.282;2023-04-15T08:27:46;5.15;;;3.10;;
59972;SDS011;55298;-36.624;-64.282;2023-04-15T08:30:15;2.90;;;2.53;;
59972;SDS011;55298;-36.624;-64.282;2023-04-15T08:32:45;2.50;;;2.20;;
59972;SDS011;55298;-36.624;-64.282;2023-04-15T08:35:13;2.60;;;2.40;;
59972;SDS011;55298;-36.624;-64.282;2023-04-15T08:37:41;3.58;;;2.53;;
59972;SDS011;55298;-36.624;-64.282;2023-04-15T08:40:09;3.10;;;2.60;;
59972;SDS011;55298;-36.624;-64.282;2023-04-15T08:42:42;3.63;;;2.35;;
59972;SDS011;55298;-36.624;-64.282;2023-04-15T08:45:12;4.40;;;2.33;;
59972;SDS011;55298;-36.624;-64.282;2023-04-15T08:47:41;4.72;;;2.75;;
59972;SDS011;55298;-36.624;-64.282;2023-04-15T08:50:10;3.08;;;2.70;;
59972;SDS011;55298;-36.624;-64.282;2023-04-15T08:52:40;2.70;;;2.50;;
59972;SDS011;55298;-36.624;-64.282;2023-04-15T08:55:08;5.80;;;2.78;;
59972;SDS011;55298;-36.624;-64.282;2023-04-15T08:57:38;5.00;;;2.80;;
59972;SDS011;55298;-36.624;-64.282;2023-04-15T09:00:06;3.22;;;2.50;;
59972;SDS011;55298;-36.624;-64.282;2023-04-15T09:02:34;7.10;;;3.00;;
59972;SDS011;55298;-36.624;-64.282;2023-04-15T09:05:02;5.07;;;2.80;;
59972;SDS011;55298;-36.624;-64.282;2023-04-15T09:07:33;2.60;;;2.13;;
59972;SDS011;55298;-36.624;-64.282;2023-04-15T09:10:02;6.70;;;3.05;;
59972;SDS011;55298;-36.624;-64.282;2023-04-15T09:12:33;7.20;;;2.90;;
59972;SDS011;55298;-36.624;-64.282;2023-04-15T09:15:02;4.90;;;2.40;;
59972;SDS011;55298;-36.624;-64.282;2023-04-15T09:17:31;4.35;;;2.35;;
59972;SDS011;55298;-36.624;-64.282;2023-04-15T09:20:17;5.15;;;2.60;;
59972;SDS011;55298;-36.624;-64.282;2023-04-15T09:22:46;4.60;;;2.83;;
59972;SDS011;55298;-36.624;-64.282;2023-04-15T09:27:57;4.28;;;2.88;;
59972;SDS011;55298;-36.624;-64.282;2023-04-15T09:30:26;4.13;;;2.70;;
59972;SDS011;55298;-36.624;-64.282;2023-04-15T09:32:56;2.85;;;2.45;;
59972;SDS011;55298;-36.624;-64.282;2023-04-15T09:35:27;3.63;;;2.90;;
59972;SDS011;55298;-36.624;-64.282;2023-04-15T09:38:03;5.75;;;2.67;;
59972;SDS011;55298;-36.624;-64.282;2023-04-15T09:40:34;7.78;;;3.22;;
59972;SDS011;55298;-36.624;-64.282;2023-04-15T09:43:04;5.95;;;2.65;;
59972;SDS011;55298;-36.624;-64.282;2023-04-15T09:45:33;5.95;;;2.90;;
59972;SDS011;55298;-36.624;-64.282;2023-04-15T09:50:46;4.90;;;3.75;;
59972;SDS011;55298;-36.624;-64.282;2023-04-15T09:53:16;6.00;;;2.85;;
59972;SDS011;55298;-36.624;-64.282;2023-04-15T09:55:48;3.60;;;2.40;;
59972;SDS011;55298;-36.624;-64.282;2023-04-15T09:58:18;5.40;;;2.88;;
59972;SDS011;55298;-36.624;-64.282;2023-04-15T10:00:48;7.18;;;3.50;;
59972;SDS011;55298;-36.624;-64.282;2023-04-15T10:03:19;3.67;;;2.80;;
59972;SDS011;55298;-36.624;-64.282;2023-04-15T10:05:49;8.07;;;2.75;;
59972;SDS011;55298;-36.624;-64.282;2023-04-15T10:08:19;4.65;;;2.70;;
59972;SDS011;55298;-36.624;-64.282;2023-04-15T10:10:49;2.72;;;2.53;;
59972;SDS011;55298;-36.624;-64.282;2023-04-15T10:13:19;4.47;;;2.83;;
59972;SDS011;55298;-36.624;-64.282;2023-04-15T10:15:50;4.28;;;2.85;;
59972;SDS011;55298;-36.624;-64.282;2023-04-15T10:18:27;4.97;;;2.67;;
59972;SDS011;55298;-36.624;-64.282;2023-04-15T10:20:59;5.78;;;2.92;;
59972;SDS011;55298;-36.624;-64.282;2023-04-15T10:23:27;4.57;;;3.00;;
59972;SDS011;55298;-36.624;-64.282;2023-04-15T10:25:56;4.05;;;2.50;;
59972;SDS011;55298;-36.624;-64.282;2023-04-15T10:28:25;5.78;;;3.20;;
59972;SDS011;55298;-36.624;-64.282;2023-04-15T10:30:53;5.93;;;2.90;;
59972;SDS011;55298;-36.624;-64.282;2023-04-15T10:33:24;3.47;;;2.75;;
59972;SDS011;55298;-36.624;-64.282;2023-04-15T10:35:54;6.43;;;2.72;;
59972;SDS011;55298;-36.624;-64.282;2023-04-15T10:43:52;9.57;;;3.25;;
59972;SDS011;55298;-36.624;-64.282;2023-04-15T10:49:10;5.93;;;3.05;;
59972;SDS011;55298;-36.624;-64.282;2023-04-15T10:51:41;5.38;;;2.70;;
59972;SDS011;55298;-36.624;-64.282;2023-04-15T10:54:14;7.43;;;3.30;;
59972;SDS011;55298;-36.624;-64.282;2023-04-15T10:57:06;4.28;;;2.80;;
59972;SDS011;55298;-36.624;-64.282;2023-04-15T11:05:13;6.10;;;3.45;;
59972;SDS011;55298;-36.624;-64.282;2023-04-15T11:07:49;7.13;;;3.17;;
59972;SDS011;55298;-36.624;-64.282;2023-04-15T11:13:19;5.57;;;3.42;;
59972;SDS011;55298;-36.624;-64.282;2023-04-15T11:15:49;5.57;;;3.70;;
59972;SDS011;55298;-36.624;-64.282;2023-04-15T11:18:23;5.45;;;3.10;;
59972;SDS011;55298;-36.624;-64.282;2023-04-15T11:20:53;5.85;;;3.20;;
59972;SDS011;55298;-36.624;-64.282;2023-04-15T11:23:32;4.95;;;2.70;;
59972;SDS011;55298;-36.624;-64.282;2023-04-15T11:26:05;7.10;;;3.55;;
59972;SDS011;55298;-36.624;-64.282;2023-04-15T11:28:37;7.07;;;2.67;;
59972;SDS011;55298;-36.624;-64.282;2023-04-15T11:31:07;8.98;;;3.00;;
59972;SDS011;55298;-36.624;-64.282;2023-04-15T11:33:38;8.80;;;3.22;;
59972;SDS011;55298;-36.624;-64.282;2023-04-15T11:36:22;5.40;;;3.35;;
59972;SDS011;55298;-36.624;-64.282;2023-04-15T11:38:52;7.28;;;3.78;;
59972;SDS011;55298;-36.624;-64.282;2023-04-15T11:41:20;3.55;;;3.10;;
59972;SDS011;55298;-36.624;-64.282;2023-04-15T11:43:49;10.65;;;6.43;;
59972;SDS011;55298;-36.624;-64.282;2023-04-15T11:46:18;10.23;;;7.00;;
59972;SDS011;55298;-36.624;-64.282;2023-04-15T11:48:49;12.98;;;5.85;;
59972;SDS011;55298;-36.624;-64.282;2023-04-15T11:51:17;8.88;;;4.15;;
59972;SDS011;55298;-36.624;-64.282;2023-04-15T11:53:48;6.07;;;3.63;;
59972;SDS011;55298;-36.624;-64.282;2023-04-15T11:56:17;5.53;;;4.25;;
59972;SDS011;55298;-36.624;-64.282;2023-04-15T11:58:47;5.63;;;3.60;;
59972;SDS011;55298;-36.624;-64.282;2023-04-15T12:01:19;6.22;;;3.50;;
59972;SDS011;55298;-36.624;-64.282;2023-04-15T12:03:47;5.65;;;3.22;;
59972;SDS011;55298;-36.624;-64.282;2023-04-15T12:06:18;9.27;;;4.13;;
59972;SDS011;55298;-36.624;-64.282;2023-04-15T12:11:40;8.20;;;4.93;;
59972;SDS011;55298;-36.624;-64.282;2023-04-15T12:14:11;5.80;;;3.55;;
59972;SDS011;55298;-36.624;-64.282;2023-04-15T12:16:49;4.63;;;3.97;;
59972;SDS011;55298;-36.624;-64.282;2023-04-15T12:19:24;5.00;;;3.30;;
59972;SDS011;55298;-36.624;-64.282;2023-04-15T12:21:58;10.48;;;3.63;;
59972;SDS011;55298;-36.624;-64.282;2023-04-15T12:24:27;6.07;;;3.40;;
59972;SDS011;55298;-36.624;-64.282;2023-04-15T12:27:00;9.93;;;4.00;;
59972;SDS011;55298;-36.624;-64.282;2023-04-15T12:29:31;4.00;;;3.08;;
59972;SDS011;55298;-36.624;-64.282;2023-04-15T12:34:39;6.35;;;3.40;;
59972;SDS011;55298;-36.624;-64.282;2023-04-15T12:37:10;10.02;;;3.55;;
59972;SDS011;55298;-36.624;-64.282;2023-04-15T12:39:39;6.97;;;3.50;;
59972;SDS011;55298;-36.624;-64.282;2023-04-15T12:42:08;6.20;;;3.63;;
59972;SDS011;55298;-36.624;-64.282;2023-04-15T12:44:38;10.90;;;5.05;;
59972;SDS011;55298;-36.624;-64.282;2023-04-15T12:47:08;5.25;;;3.53;;
59972;SDS011;55298;-36.624;-64.282;2023-04-15T12:49:36;5.30;;;3.20;;
59972;SDS011;55298;-36.624;-64.282;2023-04-15T12:52:04;5.97;;;3.58;;
59972;SDS011;55298;-36.624;-64.282;2023-04-15T12:54:32;9.77;;;3.05;;
59972;SDS011;55298;-36.624;-64.282;2023-04-15T12:57:00;3.92;;;2.90;;
59972;SDS011;55298;-36.624;-64.282;2023-04-15T13:02:04;4.05;;;2.88;;
59972;SDS011;55298;-36.624;-64.282;2023-04-15T13:04:39;5.07;;;3.00;;
59972;SDS011;55298;-36.624;-64.282;2023-04-15T13:07:08;5.32;;;3.13;;
59972;SDS011;55298;-36.624;-64.282;2023-04-15T13:09:38;10.02;;;3.83;;
59972;SDS011;55298;-36.624;-64.282;2023-04-15T13:12:06;4.20;;;3.50;;
59972;SDS011;55298;-36.624;-64.282;2023-04-15T13:14:34;3.72;;;2.70;;
59972;SDS011;55298;-36.624;-64.282;2023-04-15T13:17:02;6.95;;;3.08;;
59972;SDS011;55298;-36.624;-64.282;2023-04-15T13:19:37;5.63;;;3.22;;
59972;SDS011;55298;-36.624;-64.282;2023-04-15T13:22:05;4.45;;;2.90;;
59972;SDS011;55298;-36.624;-64.282;2023-04-15T13:24:36;6.60;;;3.42;;
59972;SDS011;55298;-36.624;-64.282;2023-04-15T13:27:05;4.18;;;2.92;;
59972;SDS011;55298;-36.624;-64.282;2023-04-15T13:29:34;5.40;;;3.10;;
59972;SDS011;55298;-36.624;-64.282;2023-04-15T13:32:08;7.82;;;3.00;;
59972;SDS011;55298;-36.624;-64.282;2023-04-15T13:34:35;6.97;;;3.05;;
59972;SDS011;55298;-36.624;-64.282;2023-04-15T13:37:06;6.00;;;3.45;;
59972;SDS011;55298;-36.624;-64.282;2023-04-15T13:39:38;7.00;;;3.83;;
59972;SDS011;55298;-36.624;-64.282;2023-04-15T13:42:06;6.10;;;4.07;;
59972;SDS011;55298;-36.624;-64.282;2023-04-15T13:44:34;4.78;;;3.00;;
59972;SDS011;55298;-36.624;-64.282;2023-04-15T13:47:03;8.32;;;4.00;;
59972;SDS011;55298;-36.624;-64.282;2023-04-15T13:49:31;7.20;;;3.35;;
59972;SDS011;55298;-36.624;-64.282;2023-04-15T13:51:59;5.53;;;2.92;;
59972;SDS011;55298;-36.624;-64.282;2023-04-15T13:54:27;6.43;;;3.17;;
59972;SDS011;55298;-36.624;-64.282;2023-04-15T13:56:57;4.43;;;3.40;;
59972;SDS011;55298;-36.624;-64.282;2023-04-15T13:59:31;8.02;;;2.75;;
59972;SDS011;55298;-36.624;-64.282;2023-04-15T14:04:38;5.55;;;3.00;;
59972;SDS011;55298;-36.624;-64.282;2023-04-15T14:07:06;8.38;;;3.30;;
59972;SDS011;55298;-36.624;-64.282;2023-04-15T14:09:37;7.53;;;3.40;;
59972;SDS011;55298;-36.624;-64.282;2023-04-15T14:12:05;7.57;;;3.42;;
59972;SDS011;55298;-36.624;-64.282;2023-04-15T14:14:32;5.95;;;3.00;;
59972;SDS011;55298;-36.624;-64.282;2023-04-15T14:17:01;6.93;;;2.75;;
59972;SDS011;55298;-36.624;-64.282;2023-04-15T14:19:30;6.00;;;3.40;;
59972;SDS011;55298;-36.624;-64.282;2023-04-15T14:21:58;4.65;;;3.15;;
59972;SDS011;55298;-36.624;-64.282;2023-04-15T14:24:26;4.93;;;3.05;;
59972;SDS011;55298;-36.624;-64.282;2023-04-15T14:26:58;4.68;;;3.00;;
59972;SDS011;55298;-36.624;-64.282;2023-04-15T14:29:28;3.28;;;2.60;;
59972;SDS011;55298;-36.624;-64.282;2023-04-15T14:31:56;4.97;;;2.70;;
59972;SDS011;55298;-36.624;-64.282;2023-04-15T14:34:25;7.72;;;2.75;;
59972;SDS011;55298;-36.624;-64.282;2023-04-15T14:36:57;8.20;;;3.15;;
59972;SDS011;55298;-36.624;-64.282;2023-04-15T14:39:28;4.75;;;2.80;;
59972;SDS011;55298;-36.624;-64.282;2023-04-15T14:42:04;4.57;;;3.03;;
59972;SDS011;55298;-36.624;-64.282;2023-04-15T14:44:33;3.15;;;2.80;;
59972;SDS011;55298;-36.624;-64.282;2023-04-15T14:47:01;7.70;;;2.95;;
59972;SDS011;55298;-36.624;-64.282;2023-04-15T14:49:29;6.72;;;2.75;;
59972;SDS011;55298;-36.624;-64.282;2023-04-15T14:51:57;6.28;;;3.22;;
59972;SDS011;55298;-36.624;-64.282;2023-04-15T14:54:25;6.82;;;3.33;;
59972;SDS011;55298;-36.624;-64.282;2023-04-15T14:56:55;5.13;;;2.63;;